sensor_id;sensor_type;location;lat;lon;timestamp;temperature;humidity
3406;DHT22;10008;48.682;9.016;2022-11-20T00:00:49;5.10;99.90
3406;DHT22;10008;48.682;9.016;2022-11-20T00:03:15;5.10;99.90
3406;DHT22;10008;48.682;9.016;2022-11-20T00:05:41;5.10;99.90
3406;DHT22;10008;48.682;9.016;2022-11-20T00:08:06;5.10;99.90
3406;DHT22;10008;48.682;9.016;2022-11-20T00:10:32;5.10;99.90
3406;DHT22;10008;48.682;9.016;2022-11-20T00:13:01;5.10;99.90
3406;DHT22;10008;48.682;9.016;2022-11-20T00:15:27;5.10;99.90
3406;DHT22;10008;48.682;9.016;2022-11-20T00:17:52;5.10;99.90
3406;DHT22;10008;48.682;9.016;2022-11-20T00:20:18;5.10;99.90
3406;DHT22;10008;48.682;9.016;2022-11-20T00:22:44;5.20;99.90
3406;DHT22;10008;48.682;9.016;2022-11-20T00:25:10;5.20;99.90
3406;DHT22;10008;48.682;9.016;2022-11-20T00:27:35;5.20;99.90
3406;DHT22;10008;48.682;9.016;2022-11-20T00:30:01;5.20;99.90
3406;DHT22;10008;48.682;9.016;2022-11-20T00:32:27;5.20;99.90
3406;DHT22;10008;48.682;9.016;2022-11-20T00:34:52;5.20;99.90
3406;DHT22;10008;48.682;9.016;2022-11-20T00:37:18;5.20;99.90
3406;DHT22;10008;48.682;9.016;2022-11-20T00:39:44;5.20;99.90
3406;DHT22;10008;48.682;9.016;2022-11-20T00:42:10;5.30;99.90
3406;DHT22;10008;48.682;9.016;2022-11-20T00:44:35;5.20;99.90
3406;DHT22;10008;48.682;9.016;2022-11-20T00:47:01;5.20;99.90
3406;DHT22;10008;48.682;9.016;2022-11-20T00:49:27;5.30;99.90
3406;DHT22;10008;48.682;9.016;2022-11-20T00:51:52;5.20;99.90
3406;DHT22;10008;48.682;9.016;2022-11-20T00:54:18;5.30;99.90
3406;DHT22;10008;48.682;9.016;2022-11-20T00:56:44;5.30;99.90
3406;DHT22;10008;48.682;9.016;2022-11-20T00:59:10;5.30;99.90
3406;DHT22;10008;48.682;9.016;2022-11-20T01:01:37;5.30;99.90
3406;DHT22;10008;48.682;9.016;2022-11-20T01:04:02;5.30;99.90
3406;DHT22;10008;48.682;9.016;2022-11-20T01:06:32;5.20;99.90
3406;DHT22;10008;48.682;9.016;2022-11-20T01:09:01;5.20;99.90
3406;DHT22;10008;48.682;9.016;2022-11-20T01:11:39;5.10;99.90
3406;DHT22;10008;48.682;9.016;2022-11-20T01:14:09;5.10;99.90
3406;DHT22;10008;48.682;9.016;2022-11-20T01:16:41;5.10;99.90
3406;DHT22;10008;48.682;9.016;2022-11-20T01:19:10;5.00;99.90
3406;DHT22;10008;48.682;9.016;2022-11-20T01:21:39;5.00;99.90
3406;DHT22;10008;48.682;9.016;2022-11-20T01:24:07;4.90;99.90
3406;DHT22;10008;48.682;9.016;2022-11-20T01:26:35;4.80;99.90
3406;DHT22;10008;48.682;9.016;2022-11-20T01:29:03;4.80;99.90
3406;DHT22;10008;48.682;9.016;2022-11-20T01:31:34;4.80;99.90
3406;DHT22;10008;48.682;9.016;2022-11-20T01:34:05;4.70;99.90
3406;DHT22;10008;48.682;9.016;2022-11-20T01:36:33;4.70;99.90
3406;DHT22;10008;48.682;9.016;2022-11-20T01:39:05;4.70;99.90
3406;DHT22;10008;48.682;9.016;2022-11-20T01:41:33;4.60;99.90
3406;DHT22;10008;48.682;9.016;2022-11-20T01:44:21;4.60;99.90
3406;DHT22;10008;48.682;9.016;2022-11-20T01:46:57;4.70;99.90
3406;DHT22;10008;48.682;9.016;2022-11-20T01:50:29;4.60;99.90
3406;DHT22;10008;48.682;9.016;2022-11-20T01:52:58;4.60;99.90
3406;DHT22;10008;48.682;9.016;2022-11-20T01:55:31;4.50;99.90
3406;DHT22;10008;48.682;9.016;2022-11-20T01:57:58;4.60;99.90
3406;DHT22;10008;48.682;9.016;2022-11-20T02:00:25;4.50;99.90
3406;DHT22;10008;48.682;9.016;2022-11-20T02:02:57;4.40;99.90
3406;DHT22;10008;48.682;9.016;2022-11-20T02:05:36;5.20;99.90
3406;DHT22;10008;48.682;9.016;2022-11-20T02:08:05;4.40;99.90
3406;DHT22;10008;48.682;9.016;2022-11-20T02:10:32;4.40;99.90
3406;DHT22;10008;48.682;9.016;2022-11-20T02:12:59;4.30;99.90
3406;DHT22;10008;48.682;9.016;2022-11-20T02:15:43;5.20;99.90
3406;DHT22;10008;48.682;9.016;2022-11-20T02:18:10;4.20;99.90
3406;DHT22;10008;48.682;9.016;2022-11-20T02:20:38;4.20;99.90
3406;DHT22;10008;48.682;9.016;2022-11-20T02:23:15;4.80;99.90
3406;DHT22;10008;48.682;9.016;2022-11-20T02:25:43;6.00;99.90
3406;DHT22;10008;48.682;9.016;2022-11-20T02:28:11;4.40;99.90
3406;DHT22;10008;48.682;9.016;2022-11-20T02:30:37;4.40;99.90
3406;DHT22;10008;48.682;9.016;2022-11-20T02:33:02;5.00;99.90
3406;DHT22;10008;48.682;9.016;2022-11-20T02:37:55;4.60;99.90
3406;DHT22;10008;48.682;9.016;2022-11-20T02:40:21;4.60;99.90
3406;DHT22;10008;48.682;9.016;2022-11-20T02:42:47;5.20;99.90
3406;DHT22;10008;48.682;9.016;2022-11-20T02:45:13;4.70;99.90
3406;DHT22;10008;48.682;9.016;2022-11-20T02:47:39;5.20;99.90
3406;DHT22;10008;48.682;9.016;2022-11-20T02:50:05;4.70;99.90
3406;DHT22;10008;48.682;9.016;2022-11-20T02:52:31;4.70;99.90
3406;DHT22;10008;48.682;9.016;2022-11-20T02:54:57;4.70;99.90
3406;DHT22;10008;48.682;9.016;2022-11-20T02:57:23;4.70;99.90
3406;DHT22;10008;48.682;9.016;2022-11-20T02:59:48;4.70;99.90
3406;DHT22;10008;48.682;9.016;2022-11-20T03:02:14;4.70;99.90
3406;DHT22;10008;48.682;9.016;2022-11-20T03:04:40;4.70;99.90
3406;DHT22;10008;48.682;9.016;2022-11-20T03:07:07;4.80;99.90
3406;DHT22;10008;48.682;9.016;2022-11-20T03:09:33;4.70;99.90
3406;DHT22;10008;48.682;9.016;2022-11-20T03:11:58;4.60;99.90
3406;DHT22;10008;48.682;9.016;2022-11-20T03:14:24;4.60;99.90
3406;DHT22;10008;48.682;9.016;2022-11-20T03:16:50;4.60;99.90
3406;DHT22;10008;48.682;9.016;2022-11-20T03:19:15;4.50;99.90
3406;DHT22;10008;48.682;9.016;2022-11-20T03:21:41;4.50;99.90
3406;DHT22;10008;48.682;9.016;2022-11-20T03:24:07;4.40;99.90
3406;DHT22;10008;48.682;9.016;2022-11-20T03:26:33;4.40;99.90
3406;DHT22;10008;48.682;9.016;2022-11-20T03:29:00;5.30;99.90
3406;DHT22;10008;48.682;9.016;2022-11-20T03:31:31;5.20;99.90
3406;DHT22;10008;48.682;9.016;2022-11-20T03:33:58;4.40;99.90
3406;DHT22;10008;48.682;9.016;2022-11-20T03:36:25;4.40;99.90
3406;DHT22;10008;48.682;9.016;2022-11-20T03:38:52;4.90;99.90
3406;DHT22;10008;48.682;9.016;2022-11-20T03:41:26;4.20;99.90
3406;DHT22;10008;48.682;9.016;2022-11-20T03:43:54;4.20;99.90
3406;DHT22;10008;48.682;9.016;2022-11-20T03:46:21;4.20;99.90
3406;DHT22;10008;48.682;9.016;2022-11-20T03:48:47;4.20;99.90
3406;DHT22;10008;48.682;9.016;2022-11-20T03:51:14;4.30;99.90
3406;DHT22;10008;48.682;9.016;2022-11-20T03:53:41;4.10;99.90
3406;DHT22;10008;48.682;9.016;2022-11-20T03:56:08;4.10;99.90
3406;DHT22;10008;48.682;9.016;2022-11-20T03:58:36;5.10;99.90
3406;DHT22;10008;48.682;9.016;2022-11-20T04:03:36;4.00;99.90
3406;DHT22;10008;48.682;9.016;2022-11-20T04:06:14;4.10;99.90
3406;DHT22;10008;48.682;9.016;2022-11-20T04:08:40;4.10;99.90
3406;DHT22;10008;48.682;9.016;2022-11-20T04:11:13;4.30;99.90
3406;DHT22;10008;48.682;9.016;2022-11-20T04:13:40;4.20;99.90
3406;DHT22;10008;48.682;9.016;2022-11-20T04:16:07;4.30;99.90
3406;DHT22;10008;48.682;9.016;2022-11-20T04:18:33;4.30;99.90
3406;DHT22;10008;48.682;9.016;2022-11-20T04:20:59;5.00;99.90
3406;DHT22;10008;48.682;9.016;2022-11-20T04:23:26;5.20;99.90
3406;DHT22;10008;48.682;9.016;2022-11-20T04:25:52;4.40;99.90
3406;DHT22;10008;48.682;9.016;2022-11-20T04:28:18;4.50;99.90
3406;DHT22;10008;48.682;9.016;2022-11-20T04:30:43;4.50;99.90
3406;DHT22;10008;48.682;9.016;2022-11-20T04:33:09;4.50;99.90
3406;DHT22;10008;48.682;9.016;2022-11-20T04:35:36;4.60;99.90
3406;DHT22;10008;48.682;9.016;2022-11-20T04:38:02;4.60;99.90
3406;DHT22;10008;48.682;9.016;2022-11-20T04:40:28;4.50;99.90
3406;DHT22;10008;48.682;9.016;2022-11-20T04:42:55;4.60;99.90
3406;DHT22;10008;48.682;9.016;2022-11-20T04:45:21;4.70;99.90
3406;DHT22;10008;48.682;9.016;2022-11-20T04:47:47;4.70;99.90
3406;DHT22;10008;48.682;9.016;2022-11-20T04:50:13;4.70;99.90
3406;DHT22;10008;48.682;9.016;2022-11-20T04:52:39;4.70;99.90
3406;DHT22;10008;48.682;9.016;2022-11-20T04:55:05;4.70;99.90
3406;DHT22;10008;48.682;9.016;2022-11-20T04:57:30;4.70;99.90
3406;DHT22;10008;48.682;9.016;2022-11-20T04:59:56;4.80;99.90
3406;DHT22;10008;48.682;9.016;2022-11-20T05:02:22;4.80;99.90
3406;DHT22;10008;48.682;9.016;2022-11-20T05:04:48;4.90;99.90
3406;DHT22;10008;48.682;9.016;2022-11-20T05:07:15;4.80;99.90
3406;DHT22;10008;48.682;9.016;2022-11-20T05:09:41;4.80;99.90
3406;DHT22;10008;48.682;9.016;2022-11-20T05:12:08;4.80;99.90
3406;DHT22;10008;48.682;9.016;2022-11-20T05:14:34;4.80;99.90
3406;DHT22;10008;48.682;9.016;2022-11-20T05:17:00;4.90;99.90
3406;DHT22;10008;48.682;9.016;2022-11-20T05:19:26;4.90;99.90
3406;DHT22;10008;48.682;9.016;2022-11-20T05:21:51;4.90;99.90
3406;DHT22;10008;48.682;9.016;2022-11-20T05:24:17;4.90;99.90
3406;DHT22;10008;48.682;9.016;2022-11-20T05:26:43;5.80;99.90
3406;DHT22;10008;48.682;9.016;2022-11-20T05:29:11;5.00;99.90
3406;DHT22;10008;48.682;9.016;2022-11-20T05:31:39;5.00;99.90
3406;DHT22;10008;48.682;9.016;2022-11-20T05:34:06;4.90;99.90
3406;DHT22;10008;48.682;9.016;2022-11-20T05:36:32;4.90;99.90
3406;DHT22;10008;48.682;9.016;2022-11-20T05:38:58;5.00;99.90
3406;DHT22;10008;48.682;9.016;2022-11-20T05:41:24;5.00;99.90
3406;DHT22;10008;48.682;9.016;2022-11-20T05:43:50;5.00;99.90
3406;DHT22;10008;48.682;9.016;2022-11-20T05:46:18;5.00;99.90
3406;DHT22;10008;48.682;9.016;2022-11-20T05:48:44;5.90;99.90
3406;DHT22;10008;48.682;9.016;2022-11-20T05:51:13;5.00;99.90
3406;DHT22;10008;48.682;9.016;2022-11-20T05:53:39;5.10;99.90
3406;DHT22;10008;48.682;9.016;2022-11-20T05:56:26;5.70;99.90
3406;DHT22;10008;48.682;9.016;2022-11-20T05:58:51;5.10;99.90
3406;DHT22;10008;48.682;9.016;2022-11-20T06:01:22;5.20;99.90
3406;DHT22;10008;48.682;9.016;2022-11-20T06:03:48;5.20;99.90
3406;DHT22;10008;48.682;9.016;2022-11-20T06:06:16;5.20;99.90
3406;DHT22;10008;48.682;9.016;2022-11-20T06:08:43;5.20;99.90
3406;DHT22;10008;48.682;9.016;2022-11-20T06:11:11;5.20;99.90
3406;DHT22;10008;48.682;9.016;2022-11-20T06:13:37;5.10;99.90
3406;DHT22;10008;48.682;9.016;2022-11-20T06:16:03;5.10;99.90
3406;DHT22;10008;48.682;9.016;2022-11-20T06:18:30;5.10;99.90
3406;DHT22;10008;48.682;9.016;2022-11-20T06:21:12;5.10;99.90
3406;DHT22;10008;48.682;9.016;2022-11-20T06:23:38;5.10;99.90
3406;DHT22;10008;48.682;9.016;2022-11-20T06:26:09;5.10;99.90
3406;DHT22;10008;48.682;9.016;2022-11-20T06:28:35;5.10;99.90
3406;DHT22;10008;48.682;9.016;2022-11-20T06:31:02;5.10;99.90
3406;DHT22;10008;48.682;9.016;2022-11-20T06:33:27;5.10;99.90
3406;DHT22;10008;48.682;9.016;2022-11-20T06:35:56;5.10;99.90
3406;DHT22;10008;48.682;9.016;2022-11-20T06:38:23;5.10;99.90
3406;DHT22;10008;48.682;9.016;2022-11-20T06:40:48;5.20;99.90
3406;DHT22;10008;48.682;9.016;2022-11-20T06:43:14;5.60;99.90
3406;DHT22;10008;48.682;9.016;2022-11-20T06:45:40;5.20;99.90
3406;DHT22;10008;48.682;9.016;2022-11-20T06:48:06;5.20;99.90
3406;DHT22;10008;48.682;9.016;2022-11-20T06:50:32;5.20;99.90
3406;DHT22;10008;48.682;9.016;2022-11-20T06:53:01;5.20;99.90
3406;DHT22;10008;48.682;9.016;2022-11-20T06:55:27;5.20;99.90
3406;DHT22;10008;48.682;9.016;2022-11-20T06:57:53;5.20;99.90
3406;DHT22;10008;48.682;9.016;2022-11-20T07:00:19;5.20;99.90
3406;DHT22;10008;48.682;9.016;2022-11-20T07:02:44;5.20;99.90
3406;DHT22;10008;48.682;9.016;2022-11-20T07:05:10;5.30;99.90
3406;DHT22;10008;48.682;9.016;2022-11-20T07:07:36;5.30;99.90
3406;DHT22;10008;48.682;9.016;2022-11-20T07:10:01;5.30;99.90
3406;DHT22;10008;48.682;9.016;2022-11-20T07:12:28;5.40;99.90
3406;DHT22;10008;48.682;9.016;2022-11-20T07:14:53;5.40;99.90
3406;DHT22;10008;48.682;9.016;2022-11-20T07:17:19;5.50;99.90
3406;DHT22;10008;48.682;9.016;2022-11-20T07:19:45;5.50;99.90
3406;DHT22;10008;48.682;9.016;2022-11-20T07:22:10;5.50;99.90
3406;DHT22;10008;48.682;9.016;2022-11-20T07:24:36;5.50;99.90
3406;DHT22;10008;48.682;9.016;2022-11-20T07:27:02;5.50;99.90
3406;DHT22;10008;48.682;9.016;2022-11-20T07:29:28;5.50;99.90
3406;DHT22;10008;48.682;9.016;2022-11-20T07:31:53;5.50;99.90
3406;DHT22;10008;48.682;9.016;2022-11-20T07:34:21;5.50;99.90
3406;DHT22;10008;48.682;9.016;2022-11-20T07:36:46;5.60;99.90
3406;DHT22;10008;48.682;9.016;2022-11-20T07:39:12;5.60;99.90
3406;DHT22;10008;48.682;9.016;2022-11-20T07:41:38;5.70;99.90
3406;DHT22;10008;48.682;9.016;2022-11-20T07:44:03;5.80;99.90
3406;DHT22;10008;48.682;9.016;2022-11-20T07:46:29;5.80;99.90
3406;DHT22;10008;48.682;9.016;2022-11-20T07:48:55;5.80;99.90
3406;DHT22;10008;48.682;9.016;2022-11-20T07:51:21;5.80;99.90
3406;DHT22;10008;48.682;9.016;2022-11-20T07:53:46;5.90;99.90
3406;DHT22;10008;48.682;9.016;2022-11-20T07:56:12;5.90;99.90
3406;DHT22;10008;48.682;9.016;2022-11-20T07:58:39;6.00;99.90
3406;DHT22;10008;48.682;9.016;2022-11-20T08:01:06;6.10;99.90
3406;DHT22;10008;48.682;9.016;2022-11-20T08:03:34;6.10;99.90
3406;DHT22;10008;48.682;9.016;2022-11-20T08:06:01;6.20;99.90
3406;DHT22;10008;48.682;9.016;2022-11-20T08:08:27;7.00;99.90
3406;DHT22;10008;48.682;9.016;2022-11-20T08:10:53;6.30;99.90
3406;DHT22;10008;48.682;9.016;2022-11-20T08:13:39;6.30;99.90
3406;DHT22;10008;48.682;9.016;2022-11-20T08:16:23;6.30;99.90
3406;DHT22;10008;48.682;9.016;2022-11-20T08:18:49;6.20;99.90
3406;DHT22;10008;48.682;9.016;2022-11-20T08:21:15;6.20;99.90
3406;DHT22;10008;48.682;9.016;2022-11-20T08:23:40;6.20;99.90
3406;DHT22;10008;48.682;9.016;2022-11-20T08:26:06;6.10;99.90
3406;DHT22;10008;48.682;9.016;2022-11-20T08:28:32;6.20;99.90
3406;DHT22;10008;48.682;9.016;2022-11-20T08:31:00;6.20;99.90
3406;DHT22;10008;48.682;9.016;2022-11-20T08:33:25;6.20;99.90
3406;DHT22;10008;48.682;9.016;2022-11-20T08:35:51;6.20;99.90
3406;DHT22;10008;48.682;9.016;2022-11-20T08:38:17;6.20;99.90
3406;DHT22;10008;48.682;9.016;2022-11-20T08:40:43;6.30;99.90
3406;DHT22;10008;48.682;9.016;2022-11-20T08:43:31;6.30;99.90
3406;DHT22;10008;48.682;9.016;2022-11-20T08:45:57;6.40;99.90
3406;DHT22;10008;48.682;9.016;2022-11-20T08:48:23;6.40;99.90
3406;DHT22;10008;48.682;9.016;2022-11-20T08:50:49;6.50;99.90
3406;DHT22;10008;48.682;9.016;2022-11-20T08:53:14;6.50;99.90
3406;DHT22;10008;48.682;9.016;2022-11-20T08:55:40;6.50;99.90
3406;DHT22;10008;48.682;9.016;2022-11-20T08:58:06;6.60;99.90
3406;DHT22;10008;48.682;9.016;2022-11-20T09:00:33;6.70;99.90
3406;DHT22;10008;48.682;9.016;2022-11-20T09:02:59;6.70;99.90
3406;DHT22;10008;48.682;9.016;2022-11-20T09:05:27;6.80;99.90
3406;DHT22;10008;48.682;9.016;2022-11-20T09:07:56;6.80;99.90
3406;DHT22;10008;48.682;9.016;2022-11-20T09:10:22;6.80;99.90
3406;DHT22;10008;48.682;9.016;2022-11-20T09:12:51;6.70;99.90
3406;DHT22;10008;48.682;9.016;2022-11-20T09:15:17;6.70;99.90
3406;DHT22;10008;48.682;9.016;2022-11-20T09:18:00;6.70;99.90
3406;DHT22;10008;48.682;9.016;2022-11-20T09:20:27;6.70;99.90
3406;DHT22;10008;48.682;9.016;2022-11-20T09:22:54;6.70;99.90
3406;DHT22;10008;48.682;9.016;2022-11-20T09:25:24;6.60;99.90
3406;DHT22;10008;48.682;9.016;2022-11-20T09:27:59;6.60;99.90
3406;DHT22;10008;48.682;9.016;2022-11-20T09:30:25;6.60;99.90
3406;DHT22;10008;48.682;9.016;2022-11-20T09:32:51;6.50;99.90
3406;DHT22;10008;48.682;9.016;2022-11-20T09:35:17;6.50;99.90
3406;DHT22;10008;48.682;9.016;2022-11-20T09:37:44;6.60;99.90
3406;DHT22;10008;48.682;9.016;2022-11-20T09:40:26;6.50;99.90
3406;DHT22;10008;48.682;9.016;2022-11-20T09:46:21;6.50;99.90
3406;DHT22;10008;48.682;9.016;2022-11-20T09:49:02;6.50;99.90
3406;DHT22;10008;48.682;9.016;2022-11-20T09:54:22;6.60;99.90
3406;DHT22;10008;48.682;9.016;2022-11-20T09:57:12;6.40;99.90
3406;DHT22;10008;48.682;9.016;2022-11-20T09:59:51;6.40;99.90
3406;DHT22;10008;48.682;9.016;2022-11-20T10:05:20;6.50;99.90
3406;DHT22;10008;48.682;9.016;2022-11-20T10:07:52;6.60;99.90
3406;DHT22;10008;48.682;9.016;2022-11-20T10:10:33;6.60;99.90
3406;DHT22;10008;48.682;9.016;2022-11-20T10:16:00;6.60;99.90
3406;DHT22;10008;48.682;9.016;2022-11-20T10:26:30;6.40;99.90
3406;DHT22;10008;48.682;9.016;2022-11-20T10:29:13;6.40;99.90
3406;DHT22;10008;48.682;9.016;2022-11-20T10:32:11;6.30;99.90
3406;DHT22;10008;48.682;9.016;2022-11-20T10:34:59;6.40;99.90
3406;DHT22;10008;48.682;9.016;2022-11-20T10:37:28;6.40;99.90
3406;DHT22;10008;48.682;9.016;2022-11-20T10:42:37;6.30;99.90
3406;DHT22;10008;48.682;9.016;2022-11-20T10:47:53;6.30;99.90
3406;DHT22;10008;48.682;9.016;2022-11-20T10:50:21;6.30;99.90
3406;DHT22;10008;48.682;9.016;2022-11-20T10:55:45;6.30;99.90
3406;DHT22;10008;48.682;9.016;2022-11-20T10:58:39;6.30;99.90
3406;DHT22;10008;48.682;9.016;2022-11-20T11:01:17;6.30;99.90
3406;DHT22;10008;48.682;9.016;2022-11-20T11:03:43;6.50;99.90
3406;DHT22;10008;48.682;9.016;2022-11-20T11:06:31;6.70;99.90
3406;DHT22;10008;48.682;9.016;2022-11-20T11:09:04;6.80;99.90
3406;DHT22;10008;48.682;9.016;2022-11-20T11:11:34;6.90;99.90
3406;DHT22;10008;48.682;9.016;2022-11-20T11:14:11;6.90;99.90
3406;DHT22;10008;48.682;9.016;2022-11-20T11:16:52;6.90;99.90
3406;DHT22;10008;48.682;9.016;2022-11-20T11:19:18;7.00;99.90
3406;DHT22;10008;48.682;9.016;2022-11-20T11:21:49;6.90;99.90
3406;DHT22;10008;48.682;9.016;2022-11-20T11:24:27;7.10;99.90
3406;DHT22;10008;48.682;9.016;2022-11-20T11:26:59;7.30;99.90
3406;DHT22;10008;48.682;9.016;2022-11-20T11:29:25;7.40;99.90
3406;DHT22;10008;48.682;9.016;2022-11-20T11:32:28;7.50;99.90
3406;DHT22;10008;48.682;9.016;2022-11-20T11:35:11;7.80;99.90
3406;DHT22;10008;48.682;9.016;2022-11-20T11:37:43;8.30;99.90
3406;DHT22;10008;48.682;9.016;2022-11-20T11:40:11;8.40;99.90
3406;DHT22;10008;48.682;9.016;2022-11-20T11:42:43;8.40;99.90
3406;DHT22;10008;48.682;9.016;2022-11-20T11:45:15;8.50;99.90
3406;DHT22;10008;48.682;9.016;2022-11-20T11:50:15;8.60;99.90
3406;DHT22;10008;48.682;9.016;2022-11-20T11:53:08;8.70;99.90
3406;DHT22;10008;48.682;9.016;2022-11-20T11:55:56;8.70;99.90
3406;DHT22;10008;48.682;9.016;2022-11-20T11:58:48;8.80;99.90
3406;DHT22;10008;48.682;9.016;2022-11-20T12:01:36;8.90;99.90
3406;DHT22;10008;48.682;9.016;2022-11-20T12:07:15;10.00;99.90
3406;DHT22;10008;48.682;9.016;2022-11-20T12:09:48;10.30;99.90
3406;DHT22;10008;48.682;9.016;2022-11-20T12:12:18;10.80;99.90
3406;DHT22;10008;48.682;9.016;2022-11-20T12:14:48;11.10;99.90
3406;DHT22;10008;48.682;9.016;2022-11-20T12:17:16;11.10;99.90
3406;DHT22;10008;48.682;9.016;2022-11-20T12:19:43;11.00;99.90
3406;DHT22;10008;48.682;9.016;2022-11-20T12:24:55;9.50;99.90
3406;DHT22;10008;48.682;9.016;2022-11-20T12:30:20;9.00;99.90
3406;DHT22;10008;48.682;9.016;2022-11-20T12:43:19;8.60;99.90
3406;DHT22;10008;48.682;9.016;2022-11-20T12:52:10;10.40;99.90
3406;DHT22;10008;48.682;9.016;2022-11-20T12:55:12;10.90;99.90
3406;DHT22;10008;48.682;9.016;2022-11-20T13:00:22;12.10;99.90
3406;DHT22;10008;48.682;9.016;2022-11-20T13:05:59;12.20;99.90
3406;DHT22;10008;48.682;9.016;2022-11-20T13:08:30;12.20;98.50
3406;DHT22;10008;48.682;9.016;2022-11-20T13:16:19;11.90;98.80
3406;DHT22;10008;48.682;9.016;2022-11-20T13:18:47;12.00;98.10
3406;DHT22;10008;48.682;9.016;2022-11-20T13:21:19;11.50;98.60
3406;DHT22;10008;48.682;9.016;2022-11-20T13:23:46;10.70;99.50
3406;DHT22;10008;48.682;9.016;2022-11-20T13:26:20;10.50;99.90
3406;DHT22;10008;48.682;9.016;2022-11-20T13:28:58;10.20;99.90
3406;DHT22;10008;48.682;9.016;2022-11-20T13:31:33;9.60;99.90
3406;DHT22;10008;48.682;9.016;2022-11-20T13:34:03;8.90;99.90
3406;DHT22;10008;48.682;9.016;2022-11-20T13:36:29;8.70;99.90
3406;DHT22;10008;48.682;9.016;2022-11-20T13:38:57;8.50;99.90
3406;DHT22;10008;48.682;9.016;2022-11-20T13:41:30;8.40;99.90
3406;DHT22;10008;48.682;9.016;2022-11-20T13:46:47;7.90;99.90
3406;DHT22;10008;48.682;9.016;2022-11-20T13:49:34;7.70;99.90
3406;DHT22;10008;48.682;9.016;2022-11-20T13:57:53;7.70;99.90
3406;DHT22;10008;48.682;9.016;2022-11-20T14:00:22;7.70;99.90
3406;DHT22;10008;48.682;9.016;2022-11-20T14:05:51;7.30;99.90
3406;DHT22;10008;48.682;9.016;2022-11-20T14:08:27;7.20;99.90
3406;DHT22;10008;48.682;9.016;2022-11-20T14:11:24;7.10;99.90
3406;DHT22;10008;48.682;9.016;2022-11-20T14:14:03;7.10;99.90
3406;DHT22;10008;48.682;9.016;2022-11-20T14:16:33;7.00;99.90
3406;DHT22;10008;48.682;9.016;2022-11-20T14:21:45;7.10;99.90
3406;DHT22;10008;48.682;9.016;2022-11-20T14:24:12;7.10;99.90
3406;DHT22;10008;48.682;9.016;2022-11-20T14:26:42;7.20;99.90
3406;DHT22;10008;48.682;9.016;2022-11-20T14:29:19;7.10;99.90
3406;DHT22;10008;48.682;9.016;2022-11-20T14:31:47;7.10;99.90
3406;DHT22;10008;48.682;9.016;2022-11-20T14:34:37;7.20;99.90
3406;DHT22;10008;48.682;9.016;2022-11-20T14:37:06;7.20;99.90
3406;DHT22;10008;48.682;9.016;2022-11-20T14:39:37;7.20;99.90
3406;DHT22;10008;48.682;9.016;2022-11-20T14:42:15;7.20;99.90
3406;DHT22;10008;48.682;9.016;2022-11-20T14:44:42;7.10;99.90
3406;DHT22;10008;48.682;9.016;2022-11-20T14:47:12;7.10;99.90
3406;DHT22;10008;48.682;9.016;2022-11-20T14:49:38;7.10;99.90
3406;DHT22;10008;48.682;9.016;2022-11-20T14:54:44;7.10;99.90
3406;DHT22;10008;48.682;9.016;2022-11-20T14:57:30;7.00;99.90
3406;DHT22;10008;48.682;9.016;2022-11-20T15:02:44;6.90;99.90
3406;DHT22;10008;48.682;9.016;2022-11-20T15:05:11;7.00;99.90
3406;DHT22;10008;48.682;9.016;2022-11-20T15:07:39;7.00;99.90
3406;DHT22;10008;48.682;9.016;2022-11-20T15:10:27;6.80;99.90
3406;DHT22;10008;48.682;9.016;2022-11-20T15:12:55;6.80;99.90
3406;DHT22;10008;48.682;9.016;2022-11-20T15:18:15;6.60;99.90
3406;DHT22;10008;48.682;9.016;2022-11-20T15:20:41;6.50;99.90
3406;DHT22;10008;48.682;9.016;2022-11-20T15:23:18;6.50;99.90
3406;DHT22;10008;48.682;9.016;2022-11-20T15:25:45;6.40;99.90
3406;DHT22;10008;48.682;9.016;2022-11-20T15:30:50;6.30;99.90
3406;DHT22;10008;48.682;9.016;2022-11-20T15:33:17;6.30;99.90
3406;DHT22;10008;48.682;9.016;2022-11-20T15:35:43;6.30;99.90
3406;DHT22;10008;48.682;9.016;2022-11-20T15:38:09;6.20;99.90
3406;DHT22;10008;48.682;9.016;2022-11-20T15:40:35;6.20;99.90
3406;DHT22;10008;48.682;9.016;2022-11-20T15:43:01;6.20;99.90
3406;DHT22;10008;48.682;9.016;2022-11-20T15:45:46;6.20;99.90
3406;DHT22;10008;48.682;9.016;2022-11-20T15:48:18;6.20;99.90
3406;DHT22;10008;48.682;9.016;2022-11-20T15:50:58;6.10;99.90
3406;DHT22;10008;48.682;9.016;2022-11-20T15:53:24;6.10;99.90
3406;DHT22;10008;48.682;9.016;2022-11-20T15:55:49;6.00;99.90
3406;DHT22;10008;48.682;9.016;2022-11-20T15:58:15;6.00;99.90
3406;DHT22;10008;48.682;9.016;2022-11-20T16:00:44;6.10;99.90
3406;DHT22;10008;48.682;9.016;2022-11-20T16:03:14;6.00;99.90
3406;DHT22;10008;48.682;9.016;2022-11-20T16:05:40;6.00;99.90
3406;DHT22;10008;48.682;9.016;2022-11-20T16:08:06;6.00;99.90
3406;DHT22;10008;48.682;9.016;2022-11-20T16:10:32;6.00;99.90
3406;DHT22;10008;48.682;9.016;2022-11-20T16:12:58;6.10;99.90
3406;DHT22;10008;48.682;9.016;2022-11-20T16:15:46;6.10;99.90
3406;DHT22;10008;48.682;9.016;2022-11-20T16:18:19;6.20;99.90
3406;DHT22;10008;48.682;9.016;2022-11-20T16:20:51;6.20;99.90
3406;DHT22;10008;48.682;9.016;2022-11-20T16:23:17;6.20;99.90
3406;DHT22;10008;48.682;9.016;2022-11-20T16:25:43;6.20;99.90
3406;DHT22;10008;48.682;9.016;2022-11-20T16:28:10;6.20;99.90
3406;DHT22;10008;48.682;9.016;2022-11-20T16:30:36;6.30;99.90
3406;DHT22;10008;48.682;9.016;2022-11-20T16:33:03;6.30;99.90
3406;DHT22;10008;48.682;9.016;2022-11-20T16:35:30;6.20;99.90
3406;DHT22;10008;48.682;9.016;2022-11-20T16:37:57;6.30;99.90
3406;DHT22;10008;48.682;9.016;2022-11-20T16:40:23;6.30;99.90
3406;DHT22;10008;48.682;9.016;2022-11-20T16:42:50;6.30;99.90
3406;DHT22;10008;48.682;9.016;2022-11-20T16:45:16;6.40;99.90
3406;DHT22;10008;48.682;9.016;2022-11-20T16:47:42;6.40;99.90
3406;DHT22;10008;48.682;9.016;2022-11-20T16:50:08;6.40;99.90
3406;DHT22;10008;48.682;9.016;2022-11-20T16:52:34;6.40;99.90
3406;DHT22;10008;48.682;9.016;2022-11-20T16:55:00;6.40;99.90
3406;DHT22;10008;48.682;9.016;2022-11-20T16:57:30;6.50;99.90
3406;DHT22;10008;48.682;9.016;2022-11-20T16:59:58;6.50;99.90
3406;DHT22;10008;48.682;9.016;2022-11-20T17:02:24;6.50;99.90
3406;DHT22;10008;48.682;9.016;2022-11-20T17:04:51;6.40;99.90
3406;DHT22;10008;48.682;9.016;2022-11-20T17:07:17;6.40;99.90
3406;DHT22;10008;48.682;9.016;2022-11-20T17:09:42;6.40;99.90
3406;DHT22;10008;48.682;9.016;2022-11-20T17:12:08;6.40;99.90
3406;DHT22;10008;48.682;9.016;2022-11-20T17:14:35;6.40;99.90
3406;DHT22;10008;48.682;9.016;2022-11-20T17:17:01;6.40;99.90
3406;DHT22;10008;48.682;9.016;2022-11-20T17:19:27;6.40;99.90
3406;DHT22;10008;48.682;9.016;2022-11-20T17:21:53;6.40;99.90
3406;DHT22;10008;48.682;9.016;2022-11-20T17:24:19;6.40;99.90
3406;DHT22;10008;48.682;9.016;2022-11-20T17:26:47;6.40;99.90
3406;DHT22;10008;48.682;9.016;2022-11-20T17:29:15;6.40;99.90
3406;DHT22;10008;48.682;9.016;2022-11-20T17:31:42;6.40;99.90
3406;DHT22;10008;48.682;9.016;2022-11-20T17:34:11;6.40;99.90
3406;DHT22;10008;48.682;9.016;2022-11-20T17:36:37;6.40;99.90
3406;DHT22;10008;48.682;9.016;2022-11-20T17:39:06;6.40;99.90
3406;DHT22;10008;48.682;9.016;2022-11-20T17:41:32;6.40;99.90
3406;DHT22;10008;48.682;9.016;2022-11-20T17:44:00;6.40;99.90
3406;DHT22;10008;48.682;9.016;2022-11-20T17:46:29;6.40;99.90
3406;DHT22;10008;48.682;9.016;2022-11-20T17:48:59;6.50;99.90
3406;DHT22;10008;48.682;9.016;2022-11-20T17:51:28;6.50;99.90
3406;DHT22;10008;48.682;9.016;2022-11-20T17:54:00;6.40;99.90